Time;durP1;ratioP1;P1;durP2;ratioP2;P2;SDS_P1;SDS_P2;PMS_P1;PMS_P2;Temp;Humidity;BMP_temperature;BMP_pressure;BME280_temperature;BME280_humidity;BME280_pressure;Samples;Min_cycle;Max_cycle;Signal;HPM_P1;HPM_P2
2021/11/22 00:00:11;;;;;;;4.35;2.90;;;;;;;;;;4982776;28;20176;-81
2021/11/22 00:02:37;;;;;;;7.80;3.25;;;;;;;;;;4993249;28;20192;-81
2021/11/22 00:05:04;;;;;;;5.45;2.33;;;;;;;;;;4987971;28;20176;-81
2021/11/22 00:07:30;;;;;;;11.13;3.40;;;;;;;;;;4994493;28;20210;-81
2021/11/22 00:09:56;;;;;;;5.30;2.90;;;;;;;;;;4980047;28;20633;-81
2021/11/22 00:12:22;;;;;;;6.85;2.92;;;;;;;;;;4982444;28;20224;-81
2021/11/22 00:14:48;;;;;;;6.30;3.03;;;;;;;;;;4991004;28;20208;-81
2021/11/22 00:17:14;;;;;;;8.38;3.20;;;;;;;;;;4979294;28;20195;-81
2021/11/22 00:19:40;;;;;;;9.65;3.10;;;;;;;;;;4989529;28;20211;-82
2021/11/22 00:22:07;;;;;;;6.82;2.92;;;;;;;;;;4980630;28;20183;-81
2021/11/22 00:24:33;;;;;;;2.97;2.50;;;;;;;;;;4999336;28;20203;-82
2021/11/22 00:26:59;;;;;;;4.40;2.78;;;;;;;;;;4977059;28;20682;-81
2021/11/22 00:29:26;;;;;;;5.78;2.38;;;;;;;;;;5008282;28;20189;-81
2021/11/22 00:31:53;;;;;;;7.72;2.72;;;;;;;;;;4983378;28;20188;-82
2021/11/22 00:34:19;;;;;;;7.65;2.97;;;;;;;;;;4979388;28;20288;-81
2021/11/22 00:36:45;;;;;;;7.55;2.40;;;;;;;;;;4986449;28;20188;-81
2021/11/22 00:39:11;;;;;;;3.67;2.50;;;;;;;;;;4991042;28;20664;-81
2021/11/22 00:41:37;;;;;;;7.93;3.13;;;;;;;;;;4976853;28;20231;-81
2021/11/22 00:44:03;;;;;;;6.93;2.30;;;;;;;;;;4979148;28;20192;-81
2021/11/22 00:46:29;;;;;;;2.92;2.33;;;;;;;;;;4983153;28;20184;-81
2021/11/22 00:48:55;;;;;;;6.05;3.25;;;;;;;;;;4979989;28;20176;-81
2021/11/22 00:51:21;;;;;;;7.72;3.20;;;;;;;;;;4977603;28;20191;-81
2021/11/22 00:53:47;;;;;;;6.55;3.38;;;;;;;;;;4991401;28;20400;-81
2021/11/22 00:56:16;;;;;;;6.45;3.42;;;;;;;;;;5011128;28;20679;-81
2021/11/22 00:58:42;;;;;;;6.47;2.75;;;;;;;;;;4992978;28;20621;-81
2021/11/22 01:01:08;;;;;;;6.32;2.40;;;;;;;;;;4978314;28;20172;-81
2021/11/22 01:03:35;;;;;;;6.53;3.63;;;;;;;;;;4993608;28;20176;-81
2021/11/22 01:06:00;;;;;;;8.20;2.40;;;;;;;;;;4992475;28;20224;-81
2021/11/22 01:08:26;;;;;;;4.50;3.17;;;;;;;;;;4993088;28;20212;-84
2021/11/22 01:10:52;;;;;;;3.47;2.92;;;;;;;;;;4980866;28;20304;-81
2021/11/22 01:13:19;;;;;;;3.65;2.90;;;;;;;;;;4976990;28;20204;-81
2021/11/22 01:15:45;;;;;;;5.80;2.70;;;;;;;;;;4994506;28;20179;-81
2021/11/22 01:18:11;;;;;;;7.32;3.50;;;;;;;;;;4976671;28;20298;-80
2021/11/22 01:20:37;;;;;;;7.28;3.20;;;;;;;;;;4976088;28;20200;-81
2021/11/22 01:23:09;;;;;;;6.18;2.90;;;;;;;;;;4970901;28;20184;-81
2021/11/22 01:25:35;;;;;;;4.60;2.47;;;;;;;;;;4993441;28;20224;-80
2021/11/22 01:28:01;;;;;;;5.65;2.67;;;;;;;;;;4978151;28;20184;-81
2021/11/22 01:30:27;;;;;;;8.93;3.05;;;;;;;;;;4982509;28;20621;-81
2021/11/22 01:32:53;;;;;;;6.80;2.50;;;;;;;;;;4977874;28;20192;-81
2021/11/22 01:35:20;;;;;;;7.68;3.42;;;;;;;;;;4994223;28;20195;-82
2021/11/22 01:37:47;;;;;;;6.10;2.97;;;;;;;;;;4980111;28;20212;-85
2021/11/22 01:40:14;;;;;;;6.70;2.92;;;;;;;;;;4977540;28;20180;-82
2021/11/22 01:42:41;;;;;;;4.22;2.83;;;;;;;;;;4980161;28;20172;-81
2021/11/22 01:45:07;;;;;;;10.07;4.20;;;;;;;;;;4991768;28;20251;-81
2021/11/22 01:47:33;;;;;;;8.90;4.00;;;;;;;;;;4976434;28;20192;-81
2021/11/22 01:49:59;;;;;;;8.13;3.20;;;;;;;;;;4996254;28;20192;-81
2021/11/22 01:52:25;;;;;;;6.45;3.22;;;;;;;;;;4991618;28;20176;-81
2021/11/22 01:54:51;;;;;;;5.68;2.55;;;;;;;;;;4990751;28;20199;-80
2021/11/22 01:57:20;;;;;;;8.80;3.10;;;;;;;;;;4980203;28;20183;-81
2021/11/22 01:59:46;;;;;;;3.67;2.70;;;;;;;;;;4980417;28;20275;-81
2021/11/22 02:02:13;;;;;;;6.28;3.03;;;;;;;;;;4993877;28;20209;-81
2021/11/22 02:04:39;;;;;;;5.20;2.72;;;;;;;;;;4993162;28;20265;-81
2021/11/22 02:07:05;;;;;;;9.50;2.78;;;;;;;;;;4977162;28;20183;-80
2021/11/22 02:09:33;;;;;;;3.83;2.67;;;;;;;;;;4978258;28;20192;-83
2021/11/22 02:11:59;;;;;;;5.20;2.75;;;;;;;;;;4979726;28;20224;-83
2021/11/22 02:14:25;;;;;;;4.90;3.33;;;;;;;;;;4978125;28;20189;-80
2021/11/22 02:16:51;;;;;;;6.95;3.85;;;;;;;;;;4979484;28;20202;-83
2021/11/22 02:19:17;;;;;;;7.43;2.75;;;;;;;;;;4977185;28;20366;-80
2021/11/22 02:21:46;;;;;;;7.53;3.15;;;;;;;;;;4993678;28;20267;-82
2021/11/22 02:24:12;;;;;;;7.88;3.20;;;;;;;;;;4982249;28;20645;-83
2021/11/22 02:26:38;;;;;;;6.30;3.00;;;;;;;;;;4990986;28;20184;-82
2021/11/22 02:29:05;;;;;;;3.67;3.10;;;;;;;;;;4995920;28;20219;-82
2021/11/22 02:31:31;;;;;;;8.98;3.78;;;;;;;;;;4994447;28;20755;-84
2021/11/22 02:33:57;;;;;;;10.43;3.65;;;;;;;;;;4979165;28;20176;-83
2021/11/22 02:36:23;;;;;;;6.18;3.13;;;;;;;;;;4990997;28;20188;-82
2021/11/22 02:38:50;;;;;;;11.82;3.90;;;;;;;;;;4995024;28;20205;-81
2021/11/22 02:41:16;;;;;;;5.10;2.70;;;;;;;;;;4978507;28;20198;-87
2021/11/22 02:43:43;;;;;;;10.40;3.30;;;;;;;;;;4993498;28;20212;-85
2021/11/22 02:46:09;;;;;;;5.00;2.55;;;;;;;;;;4980734;28;20183;-81
2021/11/22 02:48:35;;;;;;;7.90;3.40;;;;;;;;;;4992409;28;20180;-82
2021/11/22 02:51:01;;;;;;;4.95;2.88;;;;;;;;;;4990234;28;20191;-81
2021/11/22 02:53:28;;;;;;;6.43;3.88;;;;;;;;;;4994729;28;20214;-82
2021/11/22 02:55:57;;;;;;;5.03;3.05;;;;;;;;;;4983279;28;20192;-82
2021/11/22 02:58:24;;;;;;;10.68;2.88;;;;;;;;;;4974765;28;20207;-82
2021/11/22 03:00:50;;;;;;;9.95;4.65;;;;;;;;;;4978942;28;20179;-87
2021/11/22 03:03:16;;;;;;;7.28;3.97;;;;;;;;;;4990531;28;20187;-81
2021/11/22 03:05:42;;;;;;;5.22;3.30;;;;;;;;;;4992078;28;20184;-81
2021/11/22 03:08:08;;;;;;;10.18;2.80;;;;;;;;;;4998410;28;20196;-84
2021/11/22 03:10:34;;;;;;;6.93;3.03;;;;;;;;;;4995224;28;20200;-83
2021/11/22 03:13:01;;;;;;;9.93;3.40;;;;;;;;;;4980860;28;20219;-82
2021/11/22 03:15:27;;;;;;;10.90;3.67;;;;;;;;;;4995555;28;20195;-82
2021/11/22 03:17:54;;;;;;;6.20;2.80;;;;;;;;;;4998742;28;20211;-83
2021/11/22 03:20:21;;;;;;;7.78;2.60;;;;;;;;;;4996431;28;20185;-84
2021/11/22 03:22:47;;;;;;;9.32;3.28;;;;;;;;;;4996807;28;20192;-83
2021/11/22 03:25:15;;;;;;;6.88;3.20;;;;;;;;;;4979629;28;20195;-84
2021/11/22 03:27:42;;;;;;;8.25;3.05;;;;;;;;;;4996753;28;20187;-82
2021/11/22 03:30:09;;;;;;;10.75;4.55;;;;;;;;;;4979232;28;20203;-83
2021/11/22 03:32:35;;;;;;;5.25;3.28;;;;;;;;;;4993748;28;20180;-81
2021/11/22 03:35:02;;;;;;;3.90;2.38;;;;;;;;;;4983855;28;20211;-82
2021/11/22 03:37:28;;;;;;;6.35;3.63;;;;;;;;;;4994497;28;20186;-82
2021/11/22 03:39:54;;;;;;;3.60;2.25;;;;;;;;;;4981829;28;20633;-82
2021/11/22 03:42:22;;;;;;;7.78;2.88;;;;;;;;;;4994007;28;20191;-82
2021/11/22 03:44:49;;;;;;;6.95;2.70;;;;;;;;;;4980386;28;20177;-82
2021/11/22 03:47:15;;;;;;;7.47;4.03;;;;;;;;;;4981029;28;20211;-85
2021/11/22 03:49:41;;;;;;;5.05;3.35;;;;;;;;;;4997118;28;20196;-84
2021/11/22 03:52:09;;;;;;;4.40;2.65;;;;;;;;;;4979632;28;20184;-82
2021/11/22 03:54:35;;;;;;;12.02;3.92;;;;;;;;;;4999726;28;20176;-82
2021/11/22 03:57:01;;;;;;;10.95;2.88;;;;;;;;;;4991647;28;20200;-84
2021/11/22 03:59:27;;;;;;;9.25;3.35;;;;;;;;;;4977004;28;20570;-82
2021/11/22 04:01:53;;;;;;;7.25;2.70;;;;;;;;;;4983515;28;20196;-82
2021/11/22 04:04:19;;;;;;;6.00;3.13;;;;;;;;;;4981200;28;20228;-81
2021/11/22 04:06:45;;;;;;;5.70;2.20;;;;;;;;;;5000237;28;20175;-82
2021/11/22 04:09:11;;;;;;;4.78;2.60;;;;;;;;;;4994406;28;20435;-82
2021/11/22 04:11:37;;;;;;;6.30;2.60;;;;;;;;;;4983192;28;20231;-82
2021/11/22 04:14:05;;;;;;;4.47;2.33;;;;;;;;;;4982118;28;20184;-81
2021/11/22 04:16:31;;;;;;;10.68;2.80;;;;;;;;;;4978201;28;20742;-81
2021/11/22 04:18:57;;;;;;;4.03;2.67;;;;;;;;;;4986204;28;20207;-82
2021/11/22 04:21:24;;;;;;;6.18;2.70;;;;;;;;;;4978776;28;20179;-82
2021/11/22 04:23:51;;;;;;;8.10;2.70;;;;;;;;;;4978290;28;20557;-82
2021/11/22 04:26:18;;;;;;;5.32;2.63;;;;;;;;;;4996410;28;20192;-82
2021/11/22 04:28:44;;;;;;;5.53;2.85;;;;;;;;;;4980506;28;20177;-82
2021/11/22 04:31:10;;;;;;;6.78;3.13;;;;;;;;;;4983751;28;20176;-82
2021/11/22 04:33:37;;;;;;;5.03;2.50;;;;;;;;;;4987083;28;20188;-82
2021/11/22 04:36:03;;;;;;;3.97;2.20;;;;;;;;;;4981605;28;20531;-82
2021/11/22 04:38:29;;;;;;;4.05;2.15;;;;;;;;;;4979835;28;20200;-82
2021/11/22 04:40:55;;;;;;;4.68;2.67;;;;;;;;;;4996943;28;20191;-82
2021/11/22 04:43:21;;;;;;;5.45;2.20;;;;;;;;;;4977063;28;20180;-82
2021/11/22 04:45:47;;;;;;;5.03;2.88;;;;;;;;;;4983105;28;20181;-82
2021/11/22 04:48:13;;;;;;;8.45;4.03;;;;;;;;;;4993960;28;20541;-82
2021/11/22 04:50:39;;;;;;;5.82;2.65;;;;;;;;;;4992211;28;20650;-81
2021/11/22 04:53:06;;;;;;;4.90;2.67;;;;;;;;;;4982150;28;20233;-82
2021/11/22 04:55:32;;;;;;;4.40;2.40;;;;;;;;;;4995112;28;20187;-82
2021/11/22 04:57:58;;;;;;;5.85;2.80;;;;;;;;;;4980673;28;20286;-81
2021/11/22 05:00:25;;;;;;;8.77;2.53;;;;;;;;;;4992982;28;20176;-82
2021/11/22 05:02:52;;;;;;;9.23;3.00;;;;;;;;;;4977107;28;20361;-81
2021/11/22 05:05:18;;;;;;;4.95;2.38;;;;;;;;;;4982765;28;20251;-82
2021/11/22 05:07:45;;;;;;;7.32;2.80;;;;;;;;;;4993292;28;20192;-84
2021/11/22 05:10:12;;;;;;;9.02;4.10;;;;;;;;;;4978640;28;20180;-83
2021/11/22 05:12:38;;;;;;;4.93;2.25;;;;;;;;;;4993692;28;20274;-82
2021/11/22 05:15:06;;;;;;;5.25;3.20;;;;;;;;;;4990935;28;20271;-82
2021/11/22 05:17:33;;;;;;;8.48;3.35;;;;;;;;;;4996238;28;20187;-82
2021/11/22 05:19:59;;;;;;;3.88;2.53;;;;;;;;;;4982090;28;20684;-81
2021/11/22 05:22:25;;;;;;;7.00;2.50;;;;;;;;;;4992298;28;20192;-81
2021/11/22 05:24:52;;;;;;;5.32;2.85;;;;;;;;;;4981144;28;20172;-81
2021/11/22 05:27:27;;;;;;;6.28;2.85;;;;;;;;;;4976957;28;20184;-83
2021/11/22 05:29:53;;;;;;;7.10;3.20;;;;;;;;;;4992917;28;20199;-82
2021/11/22 05:32:20;;;;;;;11.07;3.65;;;;;;;;;;4994761;28;20192;-82
2021/11/22 05:34:47;;;;;;;5.95;2.90;;;;;;;;;;4994325;28;20294;-81
2021/11/22 05:37:13;;;;;;;13.93;3.47;;;;;;;;;;4977378;28;20175;-81
2021/11/22 05:39:39;;;;;;;9.73;3.55;;;;;;;;;;4995127;28;20291;-82
2021/11/22 05:42:05;;;;;;;6.82;3.00;;;;;;;;;;4995638;28;20211;-82
2021/11/22 05:44:33;;;;;;;6.07;3.13;;;;;;;;;;4992322;28;20192;-82
2021/11/22 05:47:00;;;;;;;6.68;3.00;;;;;;;;;;4996041;28;20188;-81
2021/11/22 05:49:27;;;;;;;14.60;3.85;;;;;;;;;;4991635;28;20195;-82
2021/11/22 05:51:53;;;;;;;6.90;3.45;;;;;;;;;;4996599;28;20256;-82
2021/11/22 05:54:22;;;;;;;13.52;4.55;;;;;;;;;;4976526;28;20187;-81
2021/11/22 05:56:48;;;;;;;8.88;3.83;;;;;;;;;;4991695;28;20188;-82
2021/11/22 05:59:14;;;;;;;11.80;4.05;;;;;;;;;;4994687;28;20212;-82
2021/11/22 06:01:40;;;;;;;7.90;3.95;;;;;;;;;;4982530;28;20191;-81
2021/11/22 06:04:06;;;;;;;7.07;4.03;;;;;;;;;;4978274;28;20179;-81
2021/11/22 06:06:32;;;;;;;5.60;4.32;;;;;;;;;;4995985;28;20180;-84
2021/11/22 06:08:57;;;;;;;8.20;5.68;;;;;;;;;;4992474;28;20208;-81
2021/11/22 06:11:23;;;;;;;11.95;5.07;;;;;;;;;;4977015;28;20226;-82
2021/11/22 06:13:49;;;;;;;11.82;4.57;;;;;;;;;;4979247;28;20183;-82
2021/11/22 06:16:15;;;;;;;5.40;3.85;;;;;;;;;;4977334;28;20184;-82
2021/11/22 06:18:41;;;;;;;7.53;4.45;;;;;;;;;;4982516;28;20207;-81
2021/11/22 06:21:07;;;;;;;8.10;4.23;;;;;;;;;;4991269;28;20189;-81
2021/11/22 06:23:33;;;;;;;4.70;3.88;;;;;;;;;;4991360;28;20861;-82
2021/11/22 06:25:59;;;;;;;6.82;4.03;;;;;;;;;;4995597;28;20191;-82
2021/11/22 06:28:25;;;;;;;6.72;4.80;;;;;;;;;;4975710;28;20211;-82
2021/11/22 06:30:51;;;;;;;12.63;5.50;;;;;;;;;;4994220;28;20191;-82
2021/11/22 06:33:18;;;;;;;7.20;5.60;;;;;;;;;;4989873;28;20192;-82
2021/11/22 06:35:44;;;;;;;9.70;5.55;;;;;;;;;;4991140;28;20226;-81
2021/11/22 06:38:11;;;;;;;11.68;5.32;;;;;;;;;;4995783;28;20218;-83
2021/11/22 06:40:37;;;;;;;10.65;5.25;;;;;;;;;;4995300;28;20200;-81
2021/11/22 06:43:03;;;;;;;10.40;5.38;;;;;;;;;;4981047;28;20649;-85
2021/11/22 06:45:29;;;;;;;8.63;5.38;;;;;;;;;;4991839;28;20167;-82
2021/11/22 06:47:55;;;;;;;10.98;6.10;;;;;;;;;;4976974;28;20188;-86
2021/11/22 06:50:21;;;;;;;8.68;5.65;;;;;;;;;;4978749;28;20184;-82
2021/11/22 06:52:48;;;;;;;10.48;5.85;;;;;;;;;;4988467;28;20560;-82
2021/11/22 06:55:14;;;;;;;11.77;6.20;;;;;;;;;;4983007;28;20263;-84
2021/11/22 06:57:40;;;;;;;16.15;6.22;;;;;;;;;;4992872;28;20260;-82
2021/11/22 07:00:08;;;;;;;9.95;6.22;;;;;;;;;;4990821;28;20204;-87
2021/11/22 07:02:34;;;;;;;8.05;5.65;;;;;;;;;;4982778;28;20212;-82
2021/11/22 07:05:00;;;;;;;9.18;5.57;;;;;;;;;;4983030;28;20199;-83
2021/11/22 07:07:26;;;;;;;7.63;5.28;;;;;;;;;;4982080;28;20187;-82
2021/11/22 07:09:52;;;;;;;8.27;6.13;;;;;;;;;;4994386;28;20207;-81
2021/11/22 07:12:18;;;;;;;11.75;7.43;;;;;;;;;;4974748;28;20623;-80
2021/11/22 07:14:44;;;;;;;12.65;8.32;;;;;;;;;;4991842;28;20495;-81
2021/11/22 07:17:11;;;;;;;6.60;5.90;;;;;;;;;;4994035;28;20184;-81
2021/11/22 07:19:37;;;;;;;11.82;6.22;;;;;;;;;;4991921;28;20693;-83
2021/11/22 07:22:07;;;;;;;9.13;5.80;;;;;;;;;;4978221;28;20190;-83
2021/11/22 07:24:33;;;;;;;6.82;5.38;;;;;;;;;;4978422;28;20172;-80
2021/11/22 07:26:59;;;;;;;9.23;5.43;;;;;;;;;;4975788;28;20188;-81
2021/11/22 07:29:25;;;;;;;10.60;5.35;;;;;;;;;;4992191;28;20188;-81
2021/11/22 07:31:51;;;;;;;9.80;5.40;;;;;;;;;;4993263;28;20199;-82
2021/11/22 07:34:17;;;;;;;8.20;4.95;;;;;;;;;;4979749;28;20200;-84
2021/11/22 07:36:44;;;;;;;9.38;5.85;;;;;;;;;;4978115;28;20688;-80
2021/11/22 07:39:09;;;;;;;6.25;4.30;;;;;;;;;;4989806;28;20651;-79
2021/11/22 07:41:36;;;;;;;10.00;4.60;;;;;;;;;;4990892;28;20187;-80
2021/11/22 07:44:02;;;;;;;8.90;5.20;;;;;;;;;;4976907;28;20188;-80
2021/11/22 07:46:28;;;;;;;7.10;5.25;;;;;;;;;;4977532;28;20247;-79
2021/11/22 07:48:55;;;;;;;9.13;5.63;;;;;;;;;;4982393;28;20186;-80
2021/11/22 07:51:21;;;;;;;8.20;5.25;;;;;;;;;;4976251;28;20677;-80
2021/11/22 07:53:47;;;;;;;7.28;5.20;;;;;;;;;;4994688;28;20183;-81
2021/11/22 07:56:14;;;;;;;5.35;4.15;;;;;;;;;;4997763;28;20207;-81
2021/11/22 07:58:40;;;;;;;5.57;4.90;;;;;;;;;;4998124;28;20214;-82
2021/11/22 08:01:06;;;;;;;5.70;5.18;;;;;;;;;;4983085;28;20204;-83
2021/11/22 08:03:33;;;;;;;10.45;5.05;;;;;;;;;;4996223;28;20184;-82
2021/11/22 08:05:59;;;;;;;6.68;5.05;;;;;;;;;;4996103;28;20298;-82
2021/11/22 08:08:29;;;;;;;5.43;4.93;;;;;;;;;;4994068;28;20193;-83
2021/11/22 08:13:40;;;;;;;6.13;4.70;;;;;;;;;;4978701;28;20286;-82
2021/11/22 08:16:08;;;;;;;9.00;6.07;;;;;;;;;;4997449;28;20176;-81
2021/11/22 08:18:34;;;;;;;11.10;6.35;;;;;;;;;;4996570;28;20200;-81
2021/11/22 08:21:01;;;;;;;6.50;4.82;;;;;;;;;;4996518;28;20184;-81
2021/11/22 08:23:27;;;;;;;6.03;4.70;;;;;;;;;;4984827;28;20198;-82
2021/11/22 08:25:54;;;;;;;5.68;3.70;;;;;;;;;;4983373;28;20185;-81
2021/11/22 08:28:20;;;;;;;8.48;5.00;;;;;;;;;;4980148;28;20202;-81
2021/11/22 08:30:47;;;;;;;4.63;4.00;;;;;;;;;;4996213;28;20192;-81
2021/11/22 08:33:14;;;;;;;5.65;4.53;;;;;;;;;;4995026;28;20238;-81
2021/11/22 08:35:41;;;;;;;5.32;4.57;;;;;;;;;;4982526;28;20175;-81
2021/11/22 08:38:07;;;;;;;6.78;4.97;;;;;;;;;;4979405;28;20200;-82
2021/11/22 08:40:36;;;;;;;5.28;4.68;;;;;;;;;;5013661;28;20190;-82
2021/11/22 08:43:02;;;;;;;7.57;4.95;;;;;;;;;;4979597;28;20175;-82
2021/11/22 08:45:28;;;;;;;5.25;4.80;;;;;;;;;;4987086;28;20173;-82
2021/11/22 08:47:54;;;;;;;8.52;5.00;;;;;;;;;;4995704;28;20271;-83
2021/11/22 08:50:22;;;;;;;4.72;4.28;;;;;;;;;;4995738;28;20416;-84
2021/11/22 08:52:48;;;;;;;6.97;3.65;;;;;;;;;;4980450;28;20180;-82
2021/11/22 08:55:15;;;;;;;4.43;3.83;;;;;;;;;;4978741;28;20250;-83
2021/11/22 08:57:41;;;;;;;5.35;4.38;;;;;;;;;;5002016;28;20194;-84
2021/11/22 09:00:09;;;;;;;5.72;4.32;;;;;;;;;;4990544;28;20184;-83
2021/11/22 09:02:35;;;;;;;10.35;5.60;;;;;;;;;;4979021;28;20184;-84
2021/11/22 09:05:01;;;;;;;6.30;4.13;;;;;;;;;;4994442;28;20202;-82
2021/11/22 09:07:27;;;;;;;4.63;4.10;;;;;;;;;;4982372;28;20198;-82
2021/11/22 09:09:53;;;;;;;6.90;4.60;;;;;;;;;;4996386;28;20251;-82
2021/11/22 09:12:19;;;;;;;8.45;3.90;;;;;;;;;;4981472;28;20501;-85
2021/11/22 09:14:45;;;;;;;8.35;4.28;;;;;;;;;;4992213;28;20184;-81
2021/11/22 09:17:11;;;;;;;5.35;4.53;;;;;;;;;;4995317;28;20200;-85
2021/11/22 09:19:37;;;;;;;6.18;3.95;;;;;;;;;;4973837;28;20219;-86
2021/11/22 09:22:03;;;;;;;6.03;3.92;;;;;;;;;;4983781;28;20187;-83
2021/11/22 09:24:29;;;;;;;4.47;4.00;;;;;;;;;;4998325;28;20227;-82
2021/11/22 09:26:55;;;;;;;4.50;3.78;;;;;;;;;;4996210;28;20186;-83
2021/11/22 09:29:22;;;;;;;4.88;2.70;;;;;;;;;;4996422;28;20602;-81
2021/11/22 09:31:48;;;;;;;4.15;3.08;;;;;;;;;;4980585;28;20181;-84
2021/11/22 09:34:14;;;;;;;5.38;3.25;;;;;;;;;;4978522;28;20262;-84
2021/11/22 09:36:40;;;;;;;5.70;3.40;;;;;;;;;;4994303;28;20255;-84
2021/11/22 09:39:07;;;;;;;5.53;4.25;;;;;;;;;;4977663;28;20302;-83
2021/11/22 09:41:33;;;;;;;5.20;3.50;;;;;;;;;;4996816;28;20206;-82
2021/11/22 09:43:59;;;;;;;4.63;3.45;;;;;;;;;;4997071;28;20211;-82
2021/11/22 09:46:25;;;;;;;3.95;3.05;;;;;;;;;;4977348;28;20243;-83
2021/11/22 09:48:51;;;;;;;3.63;3.05;;;;;;;;;;4979785;28;20184;-81
2021/11/22 09:51:17;;;;;;;3.63;2.90;;;;;;;;;;4992647;28;20256;-81
2021/11/22 09:53:43;;;;;;;4.22;3.40;;;;;;;;;;4975904;28;20212;-84
2021/11/22 09:56:10;;;;;;;5.80;3.33;;;;;;;;;;4981775;28;20297;-80
2021/11/22 09:58:36;;;;;;;2.78;2.47;;;;;;;;;;4995520;28;20204;-82
2021/11/22 10:01:04;;;;;;;4.95;2.97;;;;;;;;;;4983521;28;20211;-82
2021/11/22 10:03:30;;;;;;;4.75;3.13;;;;;;;;;;4999480;28;20211;-80
2021/11/22 10:05:57;;;;;;;3.08;2.63;;;;;;;;;;4982111;28;20179;-80
2021/11/22 10:08:23;;;;;;;7.28;3.55;;;;;;;;;;4979819;28;20196;-81
2021/11/22 10:10:49;;;;;;;6.60;3.88;;;;;;;;;;4979465;28;20352;-84
2021/11/22 10:13:27;;;;;;;7.50;3.90;;;;;;;;;;4996948;28;20194;-83
2021/11/22 10:16:16;;;;;;;3.50;3.20;;;;;;;;;;4981228;28;20790;-82
2021/11/22 10:18:42;;;;;;;4.63;3.33;;;;;;;;;;4979817;28;20207;-81
2021/11/22 10:21:10;;;;;;;4.20;3.80;;;;;;;;;;4991862;28;20186;-83
2021/11/22 10:23:37;;;;;;;3.00;2.72;;;;;;;;;;4991575;28;20483;-81
2021/11/22 10:26:04;;;;;;;5.22;3.28;;;;;;;;;;4992561;28;20211;-81
2021/11/22 10:28:32;;;;;;;3.75;3.08;;;;;;;;;;4986530;28;20407;-83
2021/11/22 10:31:03;;;;;;;4.55;3.38;;;;;;;;;;5012386;28;20590;-80
2021/11/22 10:33:31;;;;;;;5.28;3.70;;;;;;;;;;4981331;28;20188;-83
2021/11/22 10:36:00;;;;;;;4.97;3.30;;;;;;;;;;4991907;28;20187;-82
2021/11/22 10:38:27;;;;;;;3.78;3.00;;;;;;;;;;4997840;28;20215;-80
2021/11/22 10:41:20;;;;;;;4.25;3.63;;;;;;;;;;4992115;28;20267;-81
2021/11/22 10:43:51;;;;;;;7.03;3.75;;;;;;;;;;4980450;28;20188;-82
2021/11/22 10:46:22;;;;;;;4.53;3.40;;;;;;;;;;4980123;28;20215;-82
2021/11/22 10:48:50;;;;;;;5.43;3.60;;;;;;;;;;4993920;28;20180;-81
2021/11/22 10:51:20;;;;;;;4.30;2.65;;;;;;;;;;4976019;28;20183;-82
2021/11/22 10:53:48;;;;;;;2.65;2.45;;;;;;;;;;4989219;28;20517;-84
2021/11/22 10:56:15;;;;;;;3.40;3.10;;;;;;;;;;4994678;28;20224;-83
2021/11/22 10:58:41;;;;;;;3.25;2.65;;;;;;;;;;4992183;28;20215;-84
2021/11/22 11:01:19;;;;;;;4.38;3.53;;;;;;;;;;4978869;28;20179;-80
2021/11/22 11:03:57;;;;;;;6.93;3.42;;;;;;;;;;4978053;28;20179;-82
2021/11/22 11:06:43;;;;;;;3.40;3.10;;;;;;;;;;4996613;28;20172;-80
2021/11/22 11:09:11;;;;;;;3.60;2.85;;;;;;;;;;4992895;28;20184;-80
2021/11/22 11:11:37;;;;;;;3.47;2.95;;;;;;;;;;4990904;28;20224;-82
2021/11/22 11:14:05;;;;;;;4.80;2.95;;;;;;;;;;4974322;28;20223;-81
2021/11/22 11:16:31;;;;;;;4.57;2.95;;;;;;;;;;4995543;28;20669;-82
2021/11/22 11:19:01;;;;;;;5.38;3.38;;;;;;;;;;4983152;28;20212;-81
2021/11/22 11:21:29;;;;;;;4.18;2.97;;;;;;;;;;5010304;28;20182;-83
2021/11/22 11:23:56;;;;;;;3.00;2.25;;;;;;;;;;4976230;28;20189;-83
2021/11/22 11:26:23;;;;;;;3.78;3.22;;;;;;;;;;4997067;28;20215;-83
2021/11/22 11:28:49;;;;;;;5.78;2.70;;;;;;;;;;4999150;28;20764;-81
2021/11/22 11:31:15;;;;;;;3.15;2.85;;;;;;;;;;5001540;28;20207;-80
2021/11/22 11:33:41;;;;;;;4.88;2.67;;;;;;;;;;4981697;28;20211;-81
2021/11/22 11:36:16;;;;;;;3.28;2.65;;;;;;;;;;4984308;28;20195;-78
2021/11/22 11:39:05;;;;;;;5.28;3.75;;;;;;;;;;4983492;28;20218;-82
2021/11/22 11:41:47;;;;;;;5.03;3.13;;;;;;;;;;4982784;28;20263;-79
2021/11/22 11:44:31;;;;;;;3.92;2.85;;;;;;;;;;4998055;28;20355;-86
2021/11/22 11:47:04;;;;;;;2.92;2.60;;;;;;;;;;4979989;28;20752;-83
2021/11/22 11:49:31;;;;;;;8.00;2.95;;;;;;;;;;5005034;28;20196;-80
2021/11/22 11:51:57;;;;;;;3.72;3.10;;;;;;;;;;4986435;28;20356;-82
2021/11/22 11:54:25;;;;;;;7.38;3.10;;;;;;;;;;5000502;28;20179;-83
2021/11/22 11:56:51;;;;;;;5.75;2.92;;;;;;;;;;4986248;28;20211;-83
2021/11/22 11:59:22;;;;;;;5.93;3.90;;;;;;;;;;4983142;28;20270;-81
2021/11/22 12:01:56;;;;;;;5.05;3.55;;;;;;;;;;4983452;28;20179;-82
2021/11/22 12:04:22;;;;;;;4.30;3.35;;;;;;;;;;4974737;28;20188;-83
2021/11/22 12:06:50;;;;;;;4.88;3.58;;;;;;;;;;4971553;28;20186;-81
2021/11/22 12:09:29;;;;;;;4.72;3.40;;;;;;;;;;4981839;28;20187;-83
2021/11/22 12:11:58;;;;;;;7.43;3.97;;;;;;;;;;4983727;28;20264;-84
2021/11/22 12:14:42;;;;;;;7.35;4.10;;;;;;;;;;4983535;28;20239;-83
2021/11/22 12:17:08;;;;;;;6.55;4.13;;;;;;;;;;4996049;28;20191;-82
2021/11/22 12:19:35;;;;;;;8.02;3.88;;;;;;;;;;5015060;28;20283;-80
2021/11/22 12:22:12;;;;;;;5.22;4.25;;;;;;;;;;4981444;28;20172;-80
2021/11/22 12:24:40;;;;;;;5.20;4.30;;;;;;;;;;4996996;28;20174;-81
2021/11/22 12:27:33;;;;;;;5.00;4.47;;;;;;;;;;4993093;28;20538;-80
2021/11/22 12:30:00;;;;;;;5.88;4.30;;;;;;;;;;4996094;28;20203;-80
2021/11/22 12:32:34;;;;;;;6.72;4.40;;;;;;;;;;4981847;28;20184;-83
2021/11/22 12:35:01;;;;;;;4.13;3.22;;;;;;;;;;4997176;28;20226;-82
2021/11/22 12:37:29;;;;;;;4.53;3.42;;;;;;;;;;4997040;28;20242;-82
2021/11/22 12:40:06;;;;;;;5.95;4.50;;;;;;;;;;4996446;28;20203;-81
2021/11/22 12:42:44;;;;;;;4.90;3.92;;;;;;;;;;4992874;28;20176;-82
2021/11/22 12:45:10;;;;;;;3.78;3.38;;;;;;;;;;4992393;28;20202;-79
2021/11/22 12:47:36;;;;;;;4.13;3.33;;;;;;;;;;4979743;28;20185;-81
2021/11/22 12:50:06;;;;;;;5.45;4.00;;;;;;;;;;4980714;28;20196;-80
2021/11/22 12:52:34;;;;;;;7.65;4.68;;;;;;;;;;4991209;28;20199;-82
2021/11/22 12:55:03;;;;;;;8.40;4.47;;;;;;;;;;4982772;28;20326;-81
2021/11/22 12:57:33;;;;;;;8.50;5.22;;;;;;;;;;4996007;28;20187;-83
2021/11/22 13:00:09;;;;;;;5.50;4.15;;;;;;;;;;4977449;28;20200;-82
2021/11/22 13:02:39;;;;;;;4.30;3.78;;;;;;;;;;4996419;28;20190;-84
2021/11/22 13:05:05;;;;;;;4.95;3.50;;;;;;;;;;4984305;28;20192;-82
2021/11/22 13:07:34;;;;;;;6.10;4.20;;;;;;;;;;4980642;28;20677;-82
2021/11/22 13:10:10;;;;;;;6.13;3.85;;;;;;;;;;4984188;28;20533;-83
2021/11/22 13:12:39;;;;;;;5.28;4.03;;;;;;;;;;4998434;28;20230;-79
2021/11/22 13:17:44;;;;;;;7.57;5.65;;;;;;;;;;4976737;28;20279;-79
2021/11/22 13:20:11;;;;;;;5.03;3.63;;;;;;;;;;4996727;28;20278;-82
2021/11/22 13:22:37;;;;;;;5.32;4.35;;;;;;;;;;4979043;28;20440;-82
2021/11/22 13:25:19;;;;;;;6.45;4.60;;;;;;;;;;4979155;28;20176;-80
2021/11/22 13:28:04;;;;;;;6.43;4.38;;;;;;;;;;4994702;28;20199;-81
2021/11/22 13:30:34;;;;;;;5.80;4.90;;;;;;;;;;4978917;28;20465;-82
2021/11/22 13:33:00;;;;;;;7.90;4.70;;;;;;;;;;4991928;28;20196;-81
2021/11/22 13:35:26;;;;;;;5.30;4.57;;;;;;;;;;4978538;28;20196;-82
2021/11/22 13:38:08;;;;;;;5.88;4.60;;;;;;;;;;4995276;28;20203;-80
2021/11/22 13:40:34;;;;;;;6.93;5.53;;;;;;;;;;4977751;28;20180;-81
2021/11/22 13:43:05;;;;;;;9.32;4.72;;;;;;;;;;4978235;28;20180;-81
2021/11/22 13:45:31;;;;;;;7.75;5.50;;;;;;;;;;4978855;28;20203;-83
2021/11/22 13:47:57;;;;;;;7.68;5.40;;;;;;;;;;4971959;28;20224;-79
2021/11/22 13:50:25;;;;;;;7.68;5.68;;;;;;;;;;4994342;28;20234;-79
2021/11/22 13:52:51;;;;;;;9.13;5.10;;;;;;;;;;4997860;28;20195;-82
2021/11/22 13:55:17;;;;;;;8.15;5.45;;;;;;;;;;4998237;28;20179;-80
2021/11/22 13:57:43;;;;;;;6.68;5.53;;;;;;;;;;4998501;28;20175;-81
2021/11/22 14:00:12;;;;;;;6.37;5.10;;;;;;;;;;4990880;28;20207;-80
2021/11/22 14:02:38;;;;;;;7.55;5.30;;;;;;;;;;4996117;28;20845;-80
2021/11/22 14:05:04;;;;;;;7.88;4.95;;;;;;;;;;4980169;28;20550;-77
2021/11/22 14:07:33;;;;;;;6.47;5.20;;;;;;;;;;4995944;28;20211;-79
2021/11/22 14:09:59;;;;;;;5.70;4.40;;;;;;;;;;4984933;28;20264;-80
2021/11/22 14:12:30;;;;;;;6.43;5.15;;;;;;;;;;4981849;28;20250;-80
2021/11/22 14:14:57;;;;;;;7.80;6.03;;;;;;;;;;4996434;28;20576;-80
2021/11/22 14:17:23;;;;;;;7.50;5.32;;;;;;;;;;4979376;28;20247;-82
2021/11/22 14:20:09;;;;;;;5.70;5.10;;;;;;;;;;4995735;28;20977;-79
2021/11/22 14:22:36;;;;;;;6.20;4.80;;;;;;;;;;4978664;28;20182;-80
2021/11/22 14:25:02;;;;;;;6.57;5.90;;;;;;;;;;4984304;28;20178;-80
2021/11/22 14:27:29;;;;;;;6.65;5.95;;;;;;;;;;4981815;28;20207;-81
2021/11/22 14:30:01;;;;;;;7.45;5.70;;;;;;;;;;4995880;28;20184;-80
2021/11/22 14:32:41;;;;;;;9.98;6.38;;;;;;;;;;4981203;28;20187;-84
2021/11/22 14:35:15;;;;;;;5.28;4.38;;;;;;;;;;4979245;28;20195;-78
2021/11/22 14:37:42;;;;;;;6.07;4.82;;;;;;;;;;4996556;28;20199;-80
2021/11/22 14:40:10;;;;;;;11.05;5.60;;;;;;;;;;4997904;28;20266;-80
2021/11/22 14:42:36;;;;;;;8.73;5.30;;;;;;;;;;4978319;28;20172;-81
2021/11/22 14:45:04;;;;;;;5.77;4.97;;;;;;;;;;4990826;28;20199;-79
2021/11/22 14:47:31;;;;;;;6.38;5.20;;;;;;;;;;4989447;28;20498;-80